Sheldon, North Dakota
Current Conditions -  °F | °C
As of 2:35 PM on Friday 28 Nov 2014 (Local Time) from KGWR Reporting Station
Few Clouds Few Clouds  
Wind Chill:   Ceiling: Unl
Heat Index: 19°   Visibility: 10mi
Dew Point: 12°   Wind: 10mph
Humidity: 74%   Direction: 100°E
Pressure: 29.75"   Gusts: NA
Location:  46.59°N, 97.49°W
Report Text: KGWR 282035Z AUTO 10009KT 10SM FEW008 M07/M11 A2975 RMK A01 P000
Loading
Personal Weather Stations






























Interactive Weather Map New forecast layout! Learn more

10-Day Weather Forecast

Advertisements
Track Severe Weather on mobile